createdAt,value
2023-01-06T00:00:23.553Z,101362.53
2023-01-06T00:02:49.985Z,101356.47
2023-01-06T00:05:16.476Z,101358.25
2023-01-06T00:07:44.147Z,101351.38
2023-01-06T00:10:11.558Z,101346.19
2023-01-06T00:12:38.189Z,101341.13
2023-01-06T00:15:05.070Z,101344.66
2023-01-06T00:17:31.488Z,101338.59
2023-01-06T00:19:58.323Z,101339.56
2023-01-06T00:22:24.723Z,101343.94
2023-01-06T00:24:51.131Z,101337.97
2023-01-06T00:27:17.534Z,101327.63
2023-01-06T00:29:43.971Z,101328.50
2023-01-06T00:32:10.390Z,101332.78
2023-01-06T00:34:36.806Z,101326.72
2023-01-06T00:37:04.081Z,101331.97
2023-01-06T00:39:30.508Z,101326.81
2023-01-06T00:42:06.583Z,101323.44
2023-01-06T00:44:39.922Z,101313.09
2023-01-06T00:47:08.364Z,101297.59
2023-01-06T00:49:35.112Z,101297.59
2023-01-06T00:52:01.534Z,101298.38
2023-01-06T00:54:27.977Z,101301.06
2023-01-06T00:56:54.811Z,101301.06
2023-01-06T00:59:23.347Z,101303.66
2023-01-06T01:01:51.994Z,101301.94
2023-01-06T01:04:19.117Z,101304.53
2023-01-06T01:06:47.030Z,101302.84
2023-01-06T01:09:16.947Z,101302.91
2023-01-06T01:12:01.984Z,101301.31
2023-01-06T01:14:28.410Z,101305.59
2023-01-06T01:16:54.826Z,101301.22
2023-01-06T01:19:23.781Z,101305.59
2023-01-06T01:21:50.285Z,101305.59
2023-01-06T01:24:17.022Z,101302.19
2023-01-06T01:26:43.485Z,101300.50
2023-01-06T01:29:12.163Z,101304.78
2023-01-06T01:31:38.594Z,101310.03
2023-01-06T01:34:04.995Z,101298.78
2023-01-06T01:36:31.495Z,101302.28
2023-01-06T01:38:58.053Z,101297.00
2023-01-06T01:41:26.036Z,101297.91
2023-01-06T01:43:56.130Z,101295.41
2023-01-06T01:46:25.202Z,101284.16
2023-01-06T01:48:53.051Z,101281.59
2023-01-06T01:51:23.725Z,101285.94
2023-01-06T01:53:52.531Z,101286.81
2023-01-06T01:56:24.080Z,101281.66
2023-01-06T01:59:03.781Z,101279.00
2023-01-06T02:01:31.143Z,101272.03
2023-01-06T02:03:57.912Z,101272.84
2023-01-06T02:06:25.122Z,101261.69
2023-01-06T02:09:12.354Z,101255.66
2023-01-06T02:11:39.177Z,101252.97
2023-01-06T02:14:10.729Z,101254.75
2023-01-06T02:17:14.763Z,101260.75
2023-01-06T02:20:07.649Z,101254.75
2023-01-06T02:23:04.332Z,101248.69
2023-01-06T02:25:56.524Z,101255.72
2023-01-06T02:28:38.011Z,101241.16
2023-01-06T02:31:13.401Z,101240.34
2023-01-06T02:33:54.966Z,101246.50
2023-01-06T02:36:44.951Z,101234.38
2023-01-06T02:39:45.534Z,101237.94
2023-01-06T02:42:24.719Z,101229.19
2023-01-06T02:45:02.712Z,101229.19
2023-01-06T02:47:48.023Z,101223.22
2023-01-06T02:50:46.685Z,101212.06
2023-01-06T02:53:31.412Z,101203.41
2023-01-06T02:55:58.333Z,101200.06
2023-01-06T02:58:40.363Z,101200.13
2023-01-06T03:01:12.207Z,101199.31
2023-01-06T03:03:41.798Z,101195.84
2023-01-06T03:06:10.424Z,101194.16
2023-01-06T03:08:37.152Z,101194.22
2023-01-06T03:11:03.740Z,101185.56
2023-01-06T03:13:46.994Z,101191.72
2023-01-06T03:16:14.107Z,101186.53
2023-01-06T03:18:42.824Z,101188.31
2023-01-06T03:21:12.496Z,101177.97
2023-01-06T03:23:40.695Z,101183.22
2023-01-06T03:26:07.826Z,101177.97
2023-01-06T03:28:34.238Z,101171.16
2023-01-06T03:31:12.773Z,101171.16
2023-01-06T03:33:54.066Z,101173.81
2023-01-06T03:36:43.234Z,101172.06
2023-01-06T03:39:15.064Z,101169.41
2023-01-06T03:42:02.681Z,101172.94
2023-01-06T03:44:59.115Z,101165.25
2023-01-06T03:47:31.320Z,101156.78
2023-01-06T03:50:12.913Z,101151.63
2023-01-06T03:52:46.278Z,101146.44
2023-01-06T03:55:18.177Z,101141.28
2023-01-06T03:57:47.153Z,101142.94
2023-01-06T04:00:19.564Z,101137.75
2023-01-06T04:02:46.367Z,101131.72
2023-01-06T04:05:13.908Z,101128.16
2023-01-06T04:07:41.403Z,101128.16
2023-01-06T04:10:08.411Z,101138.50
2023-01-06T04:12:41.034Z,101135.78
2023-01-06T04:15:13.294Z,101126.25
2023-01-06T04:17:40.850Z,101135.69
2023-01-06T04:20:09.763Z,101133.03
2023-01-06T04:22:36.658Z,101125.22
2023-01-06T04:25:03.420Z,101129.50
2023-01-06T04:27:29.829Z,101121.66
2023-01-06T04:29:56.280Z,101117.38
2023-01-06T04:32:22.799Z,101123.44
2023-01-06T04:34:49.269Z,101114.72
2023-01-06T04:37:15.715Z,101120.66
2023-01-06T04:39:42.167Z,101121.47
2023-01-06T04:42:08.653Z,101113.78
2023-01-06T04:44:35.087Z,101112.03
2023-01-06T04:47:01.509Z,101104.38
2023-01-06T04:49:27.924Z,101107.03
2023-01-06T04:51:54.316Z,101113.97
2023-01-06T04:54:20.731Z,101111.38
2023-01-06T04:56:47.166Z,101098.59
2023-01-06T04:59:13.596Z,101092.63
2023-01-06T05:01:40.154Z,101088.31
2023-01-06T05:04:07.367Z,101084.84
2023-01-06T05:06:34.089Z,101088.41
2023-01-06T05:09:00.510Z,101085.88
2023-01-06T05:11:27.629Z,101079.81
2023-01-06T05:13:54.490Z,101082.47
2023-01-06T05:16:25.407Z,101087.72
2023-01-06T05:18:52.462Z,101088.72
2023-01-06T05:21:18.903Z,101091.38
2023-01-06T05:23:45.497Z,101093.16
2023-01-06T05:26:17.084Z,101088.06
2023-01-06T05:28:43.920Z,101095.06
2023-01-06T05:31:11.210Z,101085.59
2023-01-06T05:33:37.748Z,101078.66
2023-01-06T05:36:09.449Z,101087.31
2023-01-06T05:38:35.882Z,101073.50
2023-01-06T05:41:02.811Z,101072.69
2023-01-06T05:43:29.458Z,101064.91
2023-01-06T05:45:56.350Z,101061.38
2023-01-06T05:48:27.238Z,101051.75
2023-01-06T05:51:00.689Z,101056.94
2023-01-06T05:53:27.091Z,101062.94
2023-01-06T05:55:53.491Z,101060.28
2023-01-06T05:58:19.942Z,101057.69
2023-01-06T06:00:46.368Z,101052.50
2023-01-06T06:03:12.773Z,101051.53
2023-01-06T06:05:39.181Z,101048.03
2023-01-06T06:08:06.768Z,101043.75
2023-01-06T06:10:33.244Z,101040.41
2023-01-06T06:12:59.806Z,101041.16
2023-01-06T06:15:26.224Z,101036.19
2023-01-06T06:17:52.623Z,101034.47
2023-01-06T06:20:19.264Z,101037.13
2023-01-06T06:22:45.694Z,101051.84
2023-01-06T06:25:12.230Z,101046.81
2023-01-06T06:27:38.634Z,101034.00
2023-01-06T06:30:08.336Z,101027.22
2023-01-06T06:32:34.734Z,101023.84
2023-01-06T06:35:01.143Z,101026.44
2023-01-06T06:37:27.527Z,101023.91
2023-01-06T06:39:53.939Z,101020.56
2023-01-06T06:42:20.525Z,101023.16
2023-01-06T06:44:46.954Z,101025.00
2023-01-06T06:47:15.794Z,101020.78
2023-01-06T06:49:43.212Z,101027.88
2023-01-06T06:52:09.786Z,101033.16
2023-01-06T06:54:36.209Z,101028.84
2023-01-06T06:57:02.602Z,101040.22
2023-01-06T06:59:29.021Z,101037.72
2023-01-06T07:01:55.514Z,101035.19
2023-01-06T07:04:22.035Z,101040.50
2023-01-06T07:06:48.523Z,101036.22
2023-01-06T07:09:14.975Z,101031.03
2023-01-06T07:11:41.389Z,101028.50
2023-01-06T07:14:07.795Z,101027.63
2023-01-06T07:16:34.204Z,101031.09
2023-01-06T07:19:00.612Z,101023.44
2023-01-06T07:21:27.032Z,101038.00
2023-01-06T07:23:53.549Z,101027.63
2023-01-06T07:26:19.980Z,101018.03
2023-01-06T07:28:46.616Z,101019.81
2023-01-06T07:31:13.156Z,101011.22
2023-01-06T07:33:39.605Z,101009.50
2023-01-06T07:36:06.379Z,101003.38
2023-01-06T07:38:32.798Z,101011.97
2023-01-06T07:41:00.612Z,101024.97
2023-01-06T07:43:27.070Z,101024.97
2023-01-06T07:45:53.803Z,101014.78
2023-01-06T07:48:20.257Z,101011.38
2023-01-06T07:50:46.668Z,101010.63
2023-01-06T07:53:13.663Z,101015.06
2023-01-06T07:55:40.069Z,101014.19
2023-01-06T07:58:09.913Z,101015.94
2023-01-06T08:00:36.930Z,101028.06
2023-01-06T08:03:06.127Z,101015.19
2023-01-06T08:05:32.917Z,101008.38
2023-01-06T08:07:59.334Z,101006.78
2023-01-06T08:10:25.746Z,101000.91
2023-01-06T08:12:52.149Z,101001.88
2023-01-06T08:15:18.591Z,101001.06
2023-01-06T08:17:45.003Z,101001.25
2023-01-06T08:20:11.515Z,101006.50
2023-01-06T08:22:38.925Z,101000.59
2023-01-06T08:25:05.586Z,100995.47
2023-01-06T08:27:32.005Z,100986.91
2023-01-06T08:29:58.406Z,100986.06
2023-01-06T08:32:24.817Z,100993.13
2023-01-06T08:34:51.243Z,101000.31
2023-01-06T08:37:17.664Z,101004.56
2023-01-06T08:39:44.385Z,101002.91
2023-01-06T08:42:10.881Z,100999.63
2023-01-06T08:44:37.434Z,100998.03
2023-01-06T08:47:04.076Z,100998.84
2023-01-06T08:49:30.515Z,100993.75
2023-01-06T08:51:56.954Z,100996.47
2023-01-06T08:54:23.383Z,101000.03
2023-01-06T08:56:49.814Z,100993.03
2023-01-06T08:59:17.284Z,100994.97
2023-01-06T09:01:44.369Z,100998.22
2023-01-06T09:04:11.112Z,100991.50
2023-01-06T09:06:39.048Z,100993.41
2023-01-06T09:09:07.596Z,100997.81
2023-01-06T09:11:34.185Z,100998.78
2023-01-06T09:14:00.858Z,100997.22
2023-01-06T09:16:27.384Z,100995.53
2023-01-06T09:18:54.818Z,101000.00
2023-01-06T09:21:22.386Z,100989.72
2023-01-06T09:23:48.942Z,100995.91
2023-01-06T09:26:16.282Z,100999.38
2023-01-06T09:28:42.976Z,100999.59
2023-01-06T09:31:09.663Z,100992.78
2023-01-06T09:33:36.540Z,100993.59
2023-01-06T09:36:03.110Z,100991.25
2023-01-06T09:38:29.790Z,100991.38
2023-01-06T09:41:05.103Z,100991.53
2023-01-06T09:43:59.156Z,100996.91
2023-01-06T09:46:29.769Z,100996.84
2023-01-06T09:48:59.616Z,100996.97
2023-01-06T09:51:27.776Z,100993.53
2023-01-06T09:53:58.590Z,100991.13
2023-01-06T09:56:25.611Z,100979.16
2023-01-06T09:59:07.530Z,100983.56
2023-01-06T10:01:41.296Z,100985.41
2023-01-06T10:04:18.350Z,100973.50
2023-01-06T10:06:55.683Z,100960.84
2023-01-06T10:09:43.985Z,100961.91
2023-01-06T10:12:30.337Z,100962.84
2023-01-06T10:15:34.107Z,100964.84
2023-01-06T10:18:22.389Z,100960.66
2023-01-06T10:21:03.036Z,100947.78
2023-01-06T10:23:48.282Z,100932.47
2023-01-06T10:26:43.726Z,100920.63
2023-01-06T10:29:17.213Z,100918.97
2023-01-06T10:31:45.572Z,100920.09
2023-01-06T10:34:24.919Z,100913.47
2023-01-06T10:37:12.989Z,100916.31
2023-01-06T10:39:40.752Z,100905.22
2023-01-06T10:42:57.439Z,100900.34
2023-01-06T10:45:27.560Z,100903.94
2023-01-06T10:47:54.367Z,100897.34
2023-01-06T10:50:21.123Z,100901.84
2023-01-06T10:52:48.372Z,100901.19
2023-01-06T10:55:29.358Z,100903.06
2023-01-06T10:58:01.336Z,100912.63
2023-01-06T11:00:27.857Z,100916.16
2023-01-06T11:03:31.290Z,100907.53
2023-01-06T11:06:02.944Z,100915.34
2023-01-06T11:08:30.024Z,100913.63
2023-01-06T11:10:57.529Z,100903.19
2023-01-06T11:13:34.771Z,100902.50
2023-01-06T11:16:28.458Z,100906.72
2023-01-06T11:18:57.316Z,100912.94
2023-01-06T11:21:37.586Z,100908.72
2023-01-06T11:24:20.792Z,100902.75
2023-01-06T11:26:53.117Z,100898.53
2023-01-06T11:29:25.643Z,100913.34
2023-01-06T11:31:52.188Z,100910.09
2023-01-06T11:34:28.900Z,100909.34
2023-01-06T11:36:56.016Z,100911.22
2023-01-06T11:39:34.350Z,100912.25
2023-01-06T11:42:13.534Z,100905.31
2023-01-06T11:44:43.476Z,100900.91
2023-01-06T11:47:23.083Z,100893.31
2023-01-06T11:49:54.791Z,100892.63
2023-01-06T11:52:25.135Z,100898.59
2023-01-06T11:55:21.496Z,100894.38
2023-01-06T11:57:55.896Z,100902.41
2023-01-06T12:00:34.410Z,100896.31
2023-01-06T12:03:17.653Z,100894.59
2023-01-06T12:05:51.515Z,100899.91
2023-01-06T12:08:21.771Z,100904.22
2023-01-06T12:10:55.299Z,100905.09
2023-01-06T12:13:21.777Z,100899.84
2023-01-06T12:15:56.824Z,100898.13
2023-01-06T12:18:28.300Z,100889.50
2023-01-06T12:20:55.665Z,100896.38
2023-01-06T12:23:34.909Z,100898.94
2023-01-06T12:26:04.982Z,100887.69
2023-01-06T12:28:34.257Z,100889.50
2023-01-06T12:31:10.830Z,100885.19
2023-01-06T12:33:52.278Z,100893.91
2023-01-06T12:36:33.924Z,100893.91
2023-01-06T12:39:11.268Z,100900.00
2023-01-06T12:41:51.616Z,100908.72
2023-01-06T12:44:36.273Z,100910.50
2023-01-06T12:47:24.891Z,100918.25
2023-01-06T12:50:05.387Z,100912.22
2023-01-06T12:52:44.523Z,100923.56
2023-01-06T12:55:29.691Z,100924.47
2023-01-06T12:58:31.372Z,100926.09
2023-01-06T13:01:01.632Z,100940.75
2023-01-06T13:03:50.080Z,100928.59
2023-01-06T13:06:39.232Z,100932.13
2023-01-06T13:09:23.207Z,100944.19
2023-01-06T13:12:20.563Z,100926.75
2023-01-06T13:15:00.818Z,100927.47
2023-01-06T13:17:29.001Z,100935.97
2023-01-06T13:20:02.551Z,100943.69
2023-01-06T13:22:44.443Z,100941.81
2023-01-06T13:25:28.274Z,100931.38
2023-01-06T13:28:16.609Z,100937.41
2023-01-06T13:30:54.785Z,100936.28
2023-01-06T13:33:39.775Z,100942.41
2023-01-06T13:36:27.139Z,100940.59
2023-01-06T13:39:10.542Z,100947.41
2023-01-06T13:41:39.586Z,100942.31
2023-01-06T13:44:14.895Z,100946.66
2023-01-06T13:46:41.755Z,100953.63
2023-01-06T13:49:08.229Z,100953.88
2023-01-06T13:51:36.476Z,100956.47
2023-01-06T13:54:03.217Z,100955.63
2023-01-06T13:56:34.155Z,100956.47
2023-01-06T13:59:23.878Z,100959.13
2023-01-06T14:01:51.558Z,100963.44
2023-01-06T14:04:33.322Z,100977.13
2023-01-06T14:07:00.535Z,100981.50
2023-01-06T14:09:27.448Z,100969.34
2023-01-06T14:11:54.480Z,100980.56
2023-01-06T14:14:28.303Z,100987.41
2023-01-06T14:16:55.821Z,100984.00
2023-01-06T14:19:25.359Z,100990.06
2023-01-06T14:21:54.682Z,100993.59
2023-01-06T14:24:54.650Z,100999.69
2023-01-06T14:27:59.937Z,100996.78
2023-01-06T14:30:34.421Z,101002.75
2023-01-06T14:33:08.289Z,101012.84
2023-01-06T14:35:43.725Z,101011.81
2023-01-06T14:38:22.718Z,101015.94
2023-01-06T14:41:17.309Z,101010.50
2023-01-06T14:43:55.481Z,101002.66
2023-01-06T14:46:28.009Z,101012.06
2023-01-06T14:49:01.195Z,101011.88
2023-01-06T14:51:29.124Z,101014.34
2023-01-06T14:53:59.933Z,101021.16
2023-01-06T14:56:29.024Z,101019.19
2023-01-06T14:59:09.234Z,101031.13
2023-01-06T15:01:37.850Z,101037.03
2023-01-06T15:04:04.664Z,101036.13
2023-01-06T15:06:31.967Z,101041.97
2023-01-06T15:09:24.754Z,101037.56
2023-01-06T15:11:51.430Z,101042.63
2023-01-06T15:14:29.347Z,101039.97
2023-01-06T15:16:57.227Z,101035.47
2023-01-06T15:19:24.401Z,101041.47
2023-01-06T15:21:52.439Z,101042.19
2023-01-06T15:24:24.339Z,101046.44
2023-01-06T15:26:56.159Z,101048.94
2023-01-06T15:29:25.220Z,101052.28
2023-01-06T15:31:53.018Z,101049.53
2023-01-06T15:34:32.592Z,101058.09
2023-01-06T15:37:00.805Z,101056.19
2023-01-06T15:39:29.000Z,101057.69
2023-01-06T15:41:56.235Z,101058.41
2023-01-06T15:44:31.032Z,101063.41
2023-01-06T15:47:12.615Z,101059.00
2023-01-06T15:49:48.191Z,101053.59
2023-01-06T15:52:24.575Z,101057.69
2023-01-06T15:54:51.690Z,101060.84
2023-01-06T15:57:18.149Z,101058.19
2023-01-06T15:59:53.585Z,101052.75
2023-01-06T16:02:23.888Z,101050.75
2023-01-06T16:04:51.173Z,101052.47
2023-01-06T16:07:22.221Z,101052.41
2023-01-06T16:09:48.854Z,101066.13
2023-01-06T16:12:16.436Z,101064.25
2023-01-06T16:14:46.100Z,101068.25
2023-01-06T16:17:20.432Z,101061.03
2023-01-06T16:19:59.641Z,101062.69
2023-01-06T16:22:29.475Z,101067.63
2023-01-06T16:24:55.947Z,101064.94
2023-01-06T16:27:24.779Z,101068.22
2023-01-06T16:30:09.036Z,101064.50
2023-01-06T16:32:38.637Z,101073.72
2023-01-06T16:35:11.228Z,101081.13
2023-01-06T16:37:37.648Z,101088.69
2023-01-06T16:40:04.564Z,101090.19
2023-01-06T16:42:44.460Z,101101.16
2023-01-06T16:45:32.265Z,101107.78
2023-01-06T16:47:59.038Z,101106.69
2023-01-06T16:50:34.345Z,101110.75
2023-01-06T16:53:12.392Z,101113.19
2023-01-06T16:55:40.287Z,101114.16
2023-01-06T16:58:20.686Z,101113.19
2023-01-06T17:00:52.220Z,101107.06
2023-01-06T17:03:24.231Z,101101.91
2023-01-06T17:05:51.367Z,101113.06
2023-01-06T17:08:24.711Z,101109.59
2023-01-06T17:10:51.119Z,101113.88
2023-01-06T17:13:35.741Z,101104.34
2023-01-06T17:16:16.809Z,101116.31
2023-01-06T17:18:52.522Z,101118.88
2023-01-06T17:21:22.198Z,101118.88
2023-01-06T17:23:58.141Z,101120.53
2023-01-06T17:26:24.971Z,101125.63
2023-01-06T17:28:52.878Z,101132.56
2023-01-06T17:31:34.412Z,101130.75
2023-01-06T17:34:10.079Z,101142.72
2023-01-06T17:36:39.047Z,101132.28
2023-01-06T17:39:24.809Z,101131.34
2023-01-06T17:42:11.370Z,101131.28
2023-01-06T17:44:45.833Z,101131.16
2023-01-06T17:47:15.181Z,101138.94
2023-01-06T17:49:44.344Z,101133.69
2023-01-06T17:52:15.651Z,101134.50
2023-01-06T17:55:03.166Z,101133.69
2023-01-06T17:57:29.577Z,101136.06
2023-01-06T17:59:56.096Z,101136.81
2023-01-06T18:02:52.491Z,101132.38
2023-01-06T18:05:21.894Z,101140.78
2023-01-06T18:07:48.296Z,101146.75
2023-01-06T18:10:17.258Z,101139.00
2023-01-06T18:12:43.684Z,101139.00
2023-01-06T18:15:31.446Z,101136.47
2023-01-06T18:17:58.125Z,101133.75
2023-01-06T18:20:24.532Z,101139.81
2023-01-06T18:22:51.043Z,101143.13
2023-01-06T18:25:24.210Z,101143.97
2023-01-06T18:27:51.511Z,101155.25
2023-01-06T18:30:27.867Z,101150.75
2023-01-06T18:32:54.351Z,101158.53
2023-01-06T18:35:27.707Z,101162.72
2023-01-06T18:37:54.808Z,101170.31
2023-01-06T18:40:24.049Z,101173.72
2023-01-06T18:42:54.741Z,101175.19
2023-01-06T18:45:26.146Z,101176.81
2023-01-06T18:48:11.223Z,101174.16
2023-01-06T18:50:43.357Z,101174.91
2023-01-06T18:53:12.683Z,101174.16
2023-01-06T18:55:45.463Z,101184.44
2023-01-06T18:58:11.820Z,101186.22
2023-01-06T19:00:42.318Z,101181.75
2023-01-06T19:03:15.392Z,101174.72
2023-01-06T19:05:42.536Z,101185.13
2023-01-06T19:08:17.932Z,101187.84
2023-01-06T19:10:45.936Z,101189.50
2023-01-06T19:13:23.847Z,101194.59
2023-01-06T19:15:51.263Z,101193.63
2023-01-06T19:18:18.466Z,101189.94
2023-01-06T19:20:45.971Z,101191.56
2023-01-06T19:23:19.890Z,101198.16
2023-01-06T19:25:52.985Z,101192.84
2023-01-06T19:28:21.944Z,101189.97
2023-01-06T19:30:51.659Z,101189.00
2023-01-06T19:33:26.775Z,101183.72
2023-01-06T19:36:00.635Z,101178.47
2023-01-06T19:38:43.037Z,101180.91
2023-01-06T19:41:20.035Z,101179.94
2023-01-06T19:43:47.720Z,101182.44
2023-01-06T19:46:18.923Z,101176.38
2023-01-06T19:48:45.803Z,101186.56
2023-01-06T19:51:34.409Z,101188.28
2023-01-06T19:54:12.216Z,101188.88
2023-01-06T19:56:41.518Z,101202.63
2023-01-06T19:59:33.506Z,101192.13
2023-01-06T20:02:09.202Z,101201.59
2023-01-06T20:04:36.615Z,101204.09
2023-01-06T20:07:03.673Z,101199.66
2023-01-06T20:09:33.239Z,101209.19
2023-01-06T20:12:00.174Z,101215.16
2023-01-06T20:14:26.634Z,101215.16
2023-01-06T20:16:53.156Z,101213.38
2023-01-06T20:19:21.526Z,101209.00
2023-01-06T20:21:48.124Z,101214.97
2023-01-06T20:24:14.695Z,101215.78
2023-01-06T20:26:41.428Z,101220.13
2023-01-06T20:29:07.914Z,101225.31
2023-01-06T20:31:34.548Z,101220.94
2023-01-06T20:34:01.028Z,101221.84
2023-01-06T20:36:27.512Z,101218.34
2023-01-06T20:38:53.975Z,101226.03
2023-01-06T20:41:20.443Z,101226.75
2023-01-06T20:43:47.016Z,101227.56
2023-01-06T20:46:14.668Z,101232.66
2023-01-06T20:48:41.395Z,101240.34
2023-01-06T20:51:08.280Z,101236.78
2023-01-06T20:53:34.798Z,101234.00
2023-01-06T20:56:01.343Z,101237.38
2023-01-06T20:58:27.829Z,101239.81
2023-01-06T21:00:54.365Z,101247.50
2023-01-06T21:03:20.845Z,101244.00
2023-01-06T21:05:47.417Z,101245.63
2023-01-06T21:08:14.127Z,101242.88
2023-01-06T21:10:40.580Z,101251.31
2023-01-06T21:13:07.040Z,101250.28
2023-01-06T21:15:33.540Z,101246.72
2023-01-06T21:18:00.034Z,101240.59
2023-01-06T21:20:26.515Z,101243.88
2023-01-06T21:22:53.028Z,101235.88
2023-01-06T21:25:19.930Z,101231.50
2023-01-06T21:27:46.448Z,101233.13
2023-01-06T21:30:13.631Z,101233.13
2023-01-06T21:32:40.136Z,101224.31
2023-01-06T21:35:06.874Z,101229.41
2023-01-06T21:37:33.320Z,101232.78
2023-01-06T21:40:00.962Z,101230.22
2023-01-06T21:42:45.934Z,101225.84
2023-01-06T21:45:12.448Z,101223.16
2023-01-06T21:47:38.916Z,101225.63
2023-01-06T21:50:06.029Z,101217.78
2023-01-06T21:52:32.496Z,101225.63
2023-01-06T21:54:59.209Z,101219.47
2023-01-06T21:57:25.672Z,101225.44
2023-01-06T21:59:52.177Z,101220.13
2023-01-06T22:02:18.710Z,101226.09
2023-01-06T22:04:45.281Z,101216.47
2023-01-06T22:07:13.090Z,101218.19
2023-01-06T22:09:41.085Z,101212.13
2023-01-06T22:12:08.925Z,101223.34
2023-01-06T22:14:35.869Z,101227.69
2023-01-06T22:17:02.591Z,101224.31
2023-01-06T22:19:29.731Z,101230.28
2023-01-06T22:21:56.438Z,101222.53
2023-01-06T22:24:24.127Z,101221.53
2023-01-06T22:26:50.663Z,101227.41
2023-01-06T22:29:17.167Z,101224.91
2023-01-06T22:31:43.635Z,101225.72
2023-01-06T22:34:10.124Z,101224.84
2023-01-06T22:36:36.602Z,101235.25
2023-01-06T22:39:03.632Z,101233.56
2023-01-06T22:41:30.085Z,101230.81
2023-01-06T22:43:56.624Z,101229.03
2023-01-06T22:46:23.179Z,101221.28
2023-01-06T22:48:49.711Z,101218.88
2023-01-06T22:51:16.373Z,101231.97
2023-01-06T22:53:42.862Z,101230.28
2023-01-06T22:56:11.088Z,101221.72
2023-01-06T22:58:39.028Z,101225.28
2023-01-06T23:01:06.913Z,101222.63
2023-01-06T23:03:34.041Z,101230.28
2023-01-06T23:06:01.659Z,101231.84
2023-01-06T23:08:29.824Z,101235.16
2023-01-06T23:11:08.193Z,101238.47
2023-01-06T23:13:36.478Z,101234.75
2023-01-06T23:16:11.356Z,101230.38
2023-01-06T23:18:41.506Z,101234.56
2023-01-06T23:21:11.656Z,101227.59
2023-01-06T23:23:39.454Z,101221.47
2023-01-06T23:26:10.937Z,101224.84
2023-01-06T23:28:38.173Z,101223.16
2023-01-06T23:31:07.186Z,101222.19
2023-01-06T23:33:38.873Z,101223.06
2023-01-06T23:36:06.284Z,101219.59
2023-01-06T23:38:32.849Z,101225.56
2023-01-06T23:41:19.760Z,101227.25
2023-01-06T23:43:47.015Z,101223.72
2023-01-06T23:46:15.828Z,101209.63
2023-01-06T23:48:42.798Z,101215.50
2023-01-06T23:51:10.205Z,101215.34
2023-01-06T23:53:37.468Z,101215.88
2023-01-06T23:56:10.302Z,101210.53
2023-01-06T23:58:38.210Z,101217.28
